sensor_id;sensor_type;location;lat;lon;timestamp;temperature;humidity
73586;DHT22;61865;50.232;18.614;2022-11-14T00:01:13;5.80;99.90
73586;DHT22;61865;50.232;18.614;2022-11-14T00:03:35;5.80;99.90
73586;DHT22;61865;50.232;18.614;2022-11-14T00:05:58;5.80;99.90
73586;DHT22;61865;50.232;18.614;2022-11-14T00:08:20;5.80;99.90
73586;DHT22;61865;50.232;18.614;2022-11-14T00:10:44;5.70;99.90
73586;DHT22;61865;50.232;18.614;2022-11-14T00:13:05;5.70;99.90
73586;DHT22;61865;50.232;18.614;2022-11-14T00:15:27;5.60;99.90
73586;DHT22;61865;50.232;18.614;2022-11-14T00:17:49;5.50;99.90
73586;DHT22;61865;50.232;18.614;2022-11-14T00:20:11;5.50;99.90
73586;DHT22;61865;50.232;18.614;2022-11-14T00:22:34;5.50;99.90
73586;DHT22;61865;50.232;18.614;2022-11-14T00:24:56;5.50;99.90
73586;DHT22;61865;50.232;18.614;2022-11-14T00:27:17;5.40;99.90
73586;DHT22;61865;50.232;18.614;2022-11-14T00:29:39;5.40;99.90
73586;DHT22;61865;50.232;18.614;2022-11-14T00:32:01;5.40;99.90
73586;DHT22;61865;50.232;18.614;2022-11-14T00:34:22;5.40;99.90
73586;DHT22;61865;50.232;18.614;2022-11-14T00:36:44;5.40;99.90
73586;DHT22;61865;50.232;18.614;2022-11-14T00:39:07;5.40;99.90
73586;DHT22;61865;50.232;18.614;2022-11-14T00:41:29;5.40;99.90
73586;DHT22;61865;50.232;18.614;2022-11-14T00:43:51;5.30;99.90
73586;DHT22;61865;50.232;18.614;2022-11-14T00:46:13;5.30;99.90
73586;DHT22;61865;50.232;18.614;2022-11-14T00:48:35;5.30;99.90
73586;DHT22;61865;50.232;18.614;2022-11-14T00:50:56;5.30;99.90
73586;DHT22;61865;50.232;18.614;2022-11-14T00:53:18;5.30;99.90
73586;DHT22;61865;50.232;18.614;2022-11-14T00:55:41;5.30;99.90
73586;DHT22;61865;50.232;18.614;2022-11-14T00:58:03;5.40;99.90
73586;DHT22;61865;50.232;18.614;2022-11-14T01:00:25;5.40;99.90
73586;DHT22;61865;50.232;18.614;2022-11-14T01:02:46;5.40;99.90
73586;DHT22;61865;50.232;18.614;2022-11-14T01:05:08;5.40;99.90
73586;DHT22;61865;50.232;18.614;2022-11-14T01:07:30;5.40;99.90
73586;DHT22;61865;50.232;18.614;2022-11-14T01:09:52;5.30;99.90
73586;DHT22;61865;50.232;18.614;2022-11-14T01:12:15;5.20;99.90
73586;DHT22;61865;50.232;18.614;2022-11-14T01:14:37;5.20;99.90
73586;DHT22;61865;50.232;18.614;2022-11-14T01:16:59;5.20;99.90
73586;DHT22;61865;50.232;18.614;2022-11-14T01:19:21;5.10;99.90
73586;DHT22;61865;50.232;18.614;2022-11-14T01:21:43;5.10;99.90
73586;DHT22;61865;50.232;18.614;2022-11-14T01:24:05;5.00;99.90
73586;DHT22;61865;50.232;18.614;2022-11-14T01:26:27;5.10;99.90
73586;DHT22;61865;50.232;18.614;2022-11-14T01:28:50;5.10;99.90
73586;DHT22;61865;50.232;18.614;2022-11-14T01:31:12;5.10;99.90
73586;DHT22;61865;50.232;18.614;2022-11-14T01:33:35;5.10;99.90
73586;DHT22;61865;50.232;18.614;2022-11-14T01:35:58;5.20;99.90
73586;DHT22;61865;50.232;18.614;2022-11-14T01:38:20;5.20;99.90
73586;DHT22;61865;50.232;18.614;2022-11-14T01:40:42;5.20;99.90
73586;DHT22;61865;50.232;18.614;2022-11-14T01:43:26;5.20;99.90
73586;DHT22;61865;50.232;18.614;2022-11-14T01:45:51;5.30;99.90
73586;DHT22;61865;50.232;18.614;2022-11-14T01:48:15;5.30;99.90
73586;DHT22;61865;50.232;18.614;2022-11-14T01:50:39;5.30;99.90
73586;DHT22;61865;50.232;18.614;2022-11-14T01:53:01;5.40;99.90
73586;DHT22;61865;50.232;18.614;2022-11-14T01:55:22;5.40;99.90
73586;DHT22;61865;50.232;18.614;2022-11-14T01:57:46;5.40;99.90
73586;DHT22;61865;50.232;18.614;2022-11-14T02:00:09;5.50;99.90
73586;DHT22;61865;50.232;18.614;2022-11-14T02:02:32;5.50;99.90
73586;DHT22;61865;50.232;18.614;2022-11-14T02:04:56;5.40;99.90
73586;DHT22;61865;50.232;18.614;2022-11-14T02:07:19;5.40;99.90
73586;DHT22;61865;50.232;18.614;2022-11-14T02:09:41;5.40;99.90
73586;DHT22;61865;50.232;18.614;2022-11-14T02:12:05;5.40;99.90
73586;DHT22;61865;50.232;18.614;2022-11-14T02:14:28;5.40;99.90
73586;DHT22;61865;50.232;18.614;2022-11-14T02:16:50;5.30;99.90
73586;DHT22;61865;50.232;18.614;2022-11-14T02:19:14;5.30;99.90
73586;DHT22;61865;50.232;18.614;2022-11-14T02:21:37;5.30;99.90
73586;DHT22;61865;50.232;18.614;2022-11-14T02:23:59;5.30;99.90
73586;DHT22;61865;50.232;18.614;2022-11-14T02:26:21;5.20;99.90
73586;DHT22;61865;50.232;18.614;2022-11-14T02:28:42;5.20;99.90
73586;DHT22;61865;50.232;18.614;2022-11-14T02:31:04;5.20;99.90
73586;DHT22;61865;50.232;18.614;2022-11-14T02:33:26;5.20;99.90
73586;DHT22;61865;50.232;18.614;2022-11-14T02:35:48;5.30;99.90
73586;DHT22;61865;50.232;18.614;2022-11-14T02:38:11;5.20;99.90
73586;DHT22;61865;50.232;18.614;2022-11-14T02:40:32;5.20;99.90
73586;DHT22;61865;50.232;18.614;2022-11-14T02:42:54;5.20;99.90
73586;DHT22;61865;50.232;18.614;2022-11-14T02:45:16;5.20;99.90
73586;DHT22;61865;50.232;18.614;2022-11-14T02:47:40;5.30;99.90
73586;DHT22;61865;50.232;18.614;2022-11-14T02:50:01;5.30;99.90
73586;DHT22;61865;50.232;18.614;2022-11-14T02:52:23;5.40;99.90
73586;DHT22;61865;50.232;18.614;2022-11-14T02:54:46;5.30;99.90
73586;DHT22;61865;50.232;18.614;2022-11-14T02:57:08;5.30;99.90
73586;DHT22;61865;50.232;18.614;2022-11-14T02:59:30;5.30;99.90
73586;DHT22;61865;50.232;18.614;2022-11-14T03:01:51;5.30;99.90
73586;DHT22;61865;50.232;18.614;2022-11-14T03:04:13;5.30;99.90
73586;DHT22;61865;50.232;18.614;2022-11-14T03:06:35;5.30;99.90
73586;DHT22;61865;50.232;18.614;2022-11-14T03:08:56;5.30;99.90
73586;DHT22;61865;50.232;18.614;2022-11-14T03:11:20;5.30;99.90
73586;DHT22;61865;50.232;18.614;2022-11-14T03:13:41;5.30;99.90
73586;DHT22;61865;50.232;18.614;2022-11-14T03:16:03;5.30;99.90
73586;DHT22;61865;50.232;18.614;2022-11-14T03:18:25;5.30;99.90
73586;DHT22;61865;50.232;18.614;2022-11-14T03:20:47;5.20;99.90
73586;DHT22;61865;50.232;18.614;2022-11-14T03:23:09;5.20;99.90
73586;DHT22;61865;50.232;18.614;2022-11-14T03:25:31;5.30;99.90
73586;DHT22;61865;50.232;18.614;2022-11-14T03:27:54;5.20;99.90
73586;DHT22;61865;50.232;18.614;2022-11-14T03:30:16;5.20;99.90
73586;DHT22;61865;50.232;18.614;2022-11-14T03:32:37;5.20;99.90
73586;DHT22;61865;50.232;18.614;2022-11-14T03:34:59;5.20;99.90
73586;DHT22;61865;50.232;18.614;2022-11-14T03:37:21;5.00;99.90
73586;DHT22;61865;50.232;18.614;2022-11-14T03:39:43;5.10;99.90
73586;DHT22;61865;50.232;18.614;2022-11-14T03:42:04;5.10;99.90
73586;DHT22;61865;50.232;18.614;2022-11-14T03:44:28;5.10;99.90
73586;DHT22;61865;50.232;18.614;2022-11-14T03:46:50;5.10;99.90
73586;DHT22;61865;50.232;18.614;2022-11-14T03:49:11;5.10;99.90
73586;DHT22;61865;50.232;18.614;2022-11-14T03:51:33;5.00;99.90
73586;DHT22;61865;50.232;18.614;2022-11-14T03:53:55;5.00;99.90
73586;DHT22;61865;50.232;18.614;2022-11-14T03:56:16;5.00;99.90
73586;DHT22;61865;50.232;18.614;2022-11-14T03:58:38;5.00;99.90
73586;DHT22;61865;50.232;18.614;2022-11-14T04:01:01;4.90;99.90
73586;DHT22;61865;50.232;18.614;2022-11-14T04:03:23;5.00;99.90
73586;DHT22;61865;50.232;18.614;2022-11-14T04:05:45;5.00;99.90
73586;DHT22;61865;50.232;18.614;2022-11-14T04:08:07;5.00;99.90
73586;DHT22;61865;50.232;18.614;2022-11-14T04:10:28;5.00;99.90
73586;DHT22;61865;50.232;18.614;2022-11-14T04:12:51;5.00;99.90
73586;DHT22;61865;50.232;18.614;2022-11-14T04:15:13;5.00;99.90
73586;DHT22;61865;50.232;18.614;2022-11-14T04:17:36;5.00;99.90
73586;DHT22;61865;50.232;18.614;2022-11-14T04:19:58;5.00;99.90
73586;DHT22;61865;50.232;18.614;2022-11-14T04:22:19;5.00;99.90
73586;DHT22;61865;50.232;18.614;2022-11-14T04:24:41;5.00;99.90
73586;DHT22;61865;50.232;18.614;2022-11-14T04:27:03;5.10;99.90
73586;DHT22;61865;50.232;18.614;2022-11-14T04:29:24;5.10;99.90
73586;DHT22;61865;50.232;18.614;2022-11-14T04:31:46;5.20;99.90
73586;DHT22;61865;50.232;18.614;2022-11-14T04:34:09;5.20;99.90
73586;DHT22;61865;50.232;18.614;2022-11-14T04:36:31;5.20;99.90
73586;DHT22;61865;50.232;18.614;2022-11-14T04:38:53;5.20;99.90
73586;DHT22;61865;50.232;18.614;2022-11-14T04:41:14;5.20;99.90
73586;DHT22;61865;50.232;18.614;2022-11-14T04:43:36;5.30;99.90
73586;DHT22;61865;50.232;18.614;2022-11-14T04:45:58;5.30;99.90
73586;DHT22;61865;50.232;18.614;2022-11-14T04:48:19;5.20;99.90
73586;DHT22;61865;50.232;18.614;2022-11-14T04:50:43;5.20;99.90
73586;DHT22;61865;50.232;18.614;2022-11-14T04:53:05;5.20;99.90
73586;DHT22;61865;50.232;18.614;2022-11-14T04:55:26;5.10;99.90
73586;DHT22;61865;50.232;18.614;2022-11-14T04:57:52;5.10;99.90
73586;DHT22;61865;50.232;18.614;2022-11-14T05:00:14;5.00;99.90
73586;DHT22;61865;50.232;18.614;2022-11-14T05:02:36;5.00;99.90
73586;DHT22;61865;50.232;18.614;2022-11-14T05:04:58;4.90;99.90
73586;DHT22;61865;50.232;18.614;2022-11-14T05:07:21;5.00;99.90
73586;DHT22;61865;50.232;18.614;2022-11-14T05:09:43;5.00;99.90
73586;DHT22;61865;50.232;18.614;2022-11-14T05:12:05;5.00;99.90
73586;DHT22;61865;50.232;18.614;2022-11-14T05:14:27;5.10;99.90
73586;DHT22;61865;50.232;18.614;2022-11-14T05:16:48;5.10;99.90
73586;DHT22;61865;50.232;18.614;2022-11-14T05:19:10;5.10;99.90
73586;DHT22;61865;50.232;18.614;2022-11-14T05:21:32;5.20;99.90
73586;DHT22;61865;50.232;18.614;2022-11-14T05:23:55;5.20;99.90
73586;DHT22;61865;50.232;18.614;2022-11-14T05:26:17;5.30;99.90
73586;DHT22;61865;50.232;18.614;2022-11-14T05:28:39;5.20;99.90
73586;DHT22;61865;50.232;18.614;2022-11-14T05:31:01;5.30;99.90
73586;DHT22;61865;50.232;18.614;2022-11-14T05:33:23;5.30;99.90
73586;DHT22;61865;50.232;18.614;2022-11-14T05:35:44;5.30;99.90
73586;DHT22;61865;50.232;18.614;2022-11-14T05:38:06;5.30;99.90
73586;DHT22;61865;50.232;18.614;2022-11-14T05:40:29;5.30;99.90
73586;DHT22;61865;50.232;18.614;2022-11-14T05:42:53;5.20;99.90
73586;DHT22;61865;50.232;18.614;2022-11-14T05:45:15;5.10;99.90
73586;DHT22;61865;50.232;18.614;2022-11-14T05:47:36;5.10;99.90
73586;DHT22;61865;50.232;18.614;2022-11-14T05:49:58;5.10;99.90
73586;DHT22;61865;50.232;18.614;2022-11-14T05:52:20;5.10;99.90
73586;DHT22;61865;50.232;18.614;2022-11-14T05:54:41;5.20;99.90
73586;DHT22;61865;50.232;18.614;2022-11-14T05:57:07;5.20;99.90
73586;DHT22;61865;50.232;18.614;2022-11-14T05:59:29;5.10;99.90
73586;DHT22;61865;50.232;18.614;2022-11-14T06:01:51;5.20;99.90
73586;DHT22;61865;50.232;18.614;2022-11-14T06:04:12;5.20;99.90
73586;DHT22;61865;50.232;18.614;2022-11-14T06:06:34;5.30;99.90
73586;DHT22;61865;50.232;18.614;2022-11-14T06:08:56;5.30;99.90
73586;DHT22;61865;50.232;18.614;2022-11-14T06:11:18;5.30;99.90
73586;DHT22;61865;50.232;18.614;2022-11-14T06:13:42;5.20;99.90
73586;DHT22;61865;50.232;18.614;2022-11-14T06:16:04;5.30;99.90
73586;DHT22;61865;50.232;18.614;2022-11-14T06:18:26;5.10;99.90
73586;DHT22;61865;50.232;18.614;2022-11-14T06:20:48;5.20;99.90
73586;DHT22;61865;50.232;18.614;2022-11-14T06:23:10;5.20;99.90
73586;DHT22;61865;50.232;18.614;2022-11-14T06:25:32;5.20;99.90
73586;DHT22;61865;50.232;18.614;2022-11-14T06:27:54;5.20;99.90
73586;DHT22;61865;50.232;18.614;2022-11-14T06:30:27;5.30;99.90
73586;DHT22;61865;50.232;18.614;2022-11-14T06:32:49;5.30;99.90
73586;DHT22;61865;50.232;18.614;2022-11-14T06:35:10;5.40;99.90
73586;DHT22;61865;50.232;18.614;2022-11-14T06:37:34;5.50;99.90
73586;DHT22;61865;50.232;18.614;2022-11-14T06:39:55;5.60;99.90
73586;DHT22;61865;50.232;18.614;2022-11-14T06:42:17;5.60;99.90
73586;DHT22;61865;50.232;18.614;2022-11-14T06:44:39;5.60;99.90
73586;DHT22;61865;50.232;18.614;2022-11-14T06:47:02;5.70;99.90
73586;DHT22;61865;50.232;18.614;2022-11-14T06:49:24;5.80;99.90
73586;DHT22;61865;50.232;18.614;2022-11-14T06:51:47;5.80;99.90
73586;DHT22;61865;50.232;18.614;2022-11-14T06:54:09;5.90;99.90
73586;DHT22;61865;50.232;18.614;2022-11-14T06:56:31;5.80;99.90
73586;DHT22;61865;50.232;18.614;2022-11-14T06:58:53;5.80;99.90
73586;DHT22;61865;50.232;18.614;2022-11-14T07:01:16;5.80;99.90
73586;DHT22;61865;50.232;18.614;2022-11-14T07:03:39;5.80;99.90
73586;DHT22;61865;50.232;18.614;2022-11-14T07:06:01;5.80;99.90
73586;DHT22;61865;50.232;18.614;2022-11-14T07:08:23;5.80;99.90
73586;DHT22;61865;50.232;18.614;2022-11-14T07:10:45;5.80;99.90
73586;DHT22;61865;50.232;18.614;2022-11-14T07:13:07;6.00;99.90
73586;DHT22;61865;50.232;18.614;2022-11-14T07:15:30;5.90;99.90
73586;DHT22;61865;50.232;18.614;2022-11-14T07:17:52;6.00;99.90
73586;DHT22;61865;50.232;18.614;2022-11-14T07:20:15;6.00;99.90
73586;DHT22;61865;50.232;18.614;2022-11-14T07:22:37;6.10;99.90
73586;DHT22;61865;50.232;18.614;2022-11-14T07:24:59;6.10;99.90
73586;DHT22;61865;50.232;18.614;2022-11-14T07:27:21;6.20;99.90
73586;DHT22;61865;50.232;18.614;2022-11-14T07:29:42;6.10;99.90
73586;DHT22;61865;50.232;18.614;2022-11-14T07:32:04;6.10;99.90
73586;DHT22;61865;50.232;18.614;2022-11-14T07:34:26;6.00;99.90
73586;DHT22;61865;50.232;18.614;2022-11-14T07:36:49;6.10;99.90
73586;DHT22;61865;50.232;18.614;2022-11-14T07:39:11;6.00;99.90
73586;DHT22;61865;50.232;18.614;2022-11-14T07:41:33;6.10;99.90
73586;DHT22;61865;50.232;18.614;2022-11-14T07:43:54;6.10;99.90
73586;DHT22;61865;50.232;18.614;2022-11-14T07:46:16;6.20;99.90
73586;DHT22;61865;50.232;18.614;2022-11-14T07:48:38;6.30;99.90
73586;DHT22;61865;50.232;18.614;2022-11-14T07:51:00;6.30;99.90
73586;DHT22;61865;50.232;18.614;2022-11-14T07:53:23;6.30;99.90
73586;DHT22;61865;50.232;18.614;2022-11-14T07:55:45;6.20;99.90
73586;DHT22;61865;50.232;18.614;2022-11-14T07:58:07;6.20;99.90
73586;DHT22;61865;50.232;18.614;2022-11-14T08:00:29;6.20;99.90
73586;DHT22;61865;50.232;18.614;2022-11-14T08:02:50;6.30;99.90
73586;DHT22;61865;50.232;18.614;2022-11-14T08:05:12;6.40;99.90
73586;DHT22;61865;50.232;18.614;2022-11-14T08:07:34;6.40;99.90
73586;DHT22;61865;50.232;18.614;2022-11-14T08:09:57;6.40;99.90
73586;DHT22;61865;50.232;18.614;2022-11-14T08:12:19;6.50;99.90
73586;DHT22;61865;50.232;18.614;2022-11-14T08:14:42;6.50;99.90
73586;DHT22;61865;50.232;18.614;2022-11-14T08:17:03;6.40;99.90
73586;DHT22;61865;50.232;18.614;2022-11-14T08:19:25;6.50;99.90
73586;DHT22;61865;50.232;18.614;2022-11-14T08:21:47;6.70;99.90
73586;DHT22;61865;50.232;18.614;2022-11-14T08:24:09;6.70;99.90
73586;DHT22;61865;50.232;18.614;2022-11-14T08:26:32;6.60;99.90
73586;DHT22;61865;50.232;18.614;2022-11-14T08:28:53;6.70;99.90
73586;DHT22;61865;50.232;18.614;2022-11-14T08:31:18;6.70;99.90
73586;DHT22;61865;50.232;18.614;2022-11-14T08:33:40;6.70;99.90
73586;DHT22;61865;50.232;18.614;2022-11-14T08:36:02;6.80;99.90
73586;DHT22;61865;50.232;18.614;2022-11-14T08:38:24;6.80;99.90
73586;DHT22;61865;50.232;18.614;2022-11-14T08:40:45;6.80;99.90
73586;DHT22;61865;50.232;18.614;2022-11-14T08:43:11;6.80;99.90
73586;DHT22;61865;50.232;18.614;2022-11-14T08:45:33;6.80;99.90
73586;DHT22;61865;50.232;18.614;2022-11-14T08:47:55;6.90;99.90
73586;DHT22;61865;50.232;18.614;2022-11-14T08:50:17;6.80;99.90
73586;DHT22;61865;50.232;18.614;2022-11-14T08:52:38;7.00;99.90
73586;DHT22;61865;50.232;18.614;2022-11-14T08:55:00;7.20;99.90
73586;DHT22;61865;50.232;18.614;2022-11-14T08:57:22;7.40;99.90
73586;DHT22;61865;50.232;18.614;2022-11-14T08:59:45;7.50;99.90
73586;DHT22;61865;50.232;18.614;2022-11-14T09:02:08;7.60;99.90
73586;DHT22;61865;50.232;18.614;2022-11-14T09:04:30;7.60;99.90
73586;DHT22;61865;50.232;18.614;2022-11-14T09:06:52;7.60;99.90
73586;DHT22;61865;50.232;18.614;2022-11-14T09:09:13;7.70;99.90
73586;DHT22;61865;50.232;18.614;2022-11-14T09:11:35;7.70;99.90
73586;DHT22;61865;50.232;18.614;2022-11-14T09:13:57;7.80;99.90
73586;DHT22;61865;50.232;18.614;2022-11-14T09:16:22;7.80;99.90
73586;DHT22;61865;50.232;18.614;2022-11-14T09:18:43;7.80;99.90
73586;DHT22;61865;50.232;18.614;2022-11-14T09:21:06;7.90;99.90
73586;DHT22;61865;50.232;18.614;2022-11-14T09:23:28;8.00;99.90
73586;DHT22;61865;50.232;18.614;2022-11-14T09:25:53;8.10;99.90
73586;DHT22;61865;50.232;18.614;2022-11-14T09:28:18;8.10;99.90
73586;DHT22;61865;50.232;18.614;2022-11-14T09:30:40;8.10;99.90
73586;DHT22;61865;50.232;18.614;2022-11-14T09:33:03;8.20;99.90
73586;DHT22;61865;50.232;18.614;2022-11-14T09:35:25;8.30;99.90
73586;DHT22;61865;50.232;18.614;2022-11-14T09:37:47;8.30;99.90
73586;DHT22;61865;50.232;18.614;2022-11-14T09:40:09;8.40;99.90
73586;DHT22;61865;50.232;18.614;2022-11-14T09:42:36;8.70;99.90
73586;DHT22;61865;50.232;18.614;2022-11-14T09:45:04;8.80;99.90
73586;DHT22;61865;50.232;18.614;2022-11-14T09:47:27;9.00;99.90
73586;DHT22;61865;50.232;18.614;2022-11-14T09:49:51;8.90;99.90
73586;DHT22;61865;50.232;18.614;2022-11-14T09:52:16;8.90;99.90
73586;DHT22;61865;50.232;18.614;2022-11-14T09:54:43;8.90;99.90
73586;DHT22;61865;50.232;18.614;2022-11-14T09:57:09;8.90;99.90
73586;DHT22;61865;50.232;18.614;2022-11-14T09:59:34;9.00;99.90
73586;DHT22;61865;50.232;18.614;2022-11-14T10:01:56;9.00;99.90
73586;DHT22;61865;50.232;18.614;2022-11-14T10:04:20;9.00;99.90
73586;DHT22;61865;50.232;18.614;2022-11-14T10:06:47;9.00;99.90
73586;DHT22;61865;50.232;18.614;2022-11-14T10:09:22;8.90;99.90
73586;DHT22;61865;50.232;18.614;2022-11-14T10:11:48;8.80;99.90
73586;DHT22;61865;50.232;18.614;2022-11-14T10:14:16;8.80;99.90
73586;DHT22;61865;50.232;18.614;2022-11-14T10:16:44;9.00;99.90
73586;DHT22;61865;50.232;18.614;2022-11-14T10:19:09;9.20;99.90
73586;DHT22;61865;50.232;18.614;2022-11-14T10:21:34;9.30;99.90
73586;DHT22;61865;50.232;18.614;2022-11-14T10:24:02;9.30;99.90
73586;DHT22;61865;50.232;18.614;2022-11-14T10:26:28;9.40;99.90
73586;DHT22;61865;50.232;18.614;2022-11-14T10:28:57;9.40;99.90
73586;DHT22;61865;50.232;18.614;2022-11-14T10:31:28;9.30;99.90
73586;DHT22;61865;50.232;18.614;2022-11-14T10:33:55;9.40;99.90
73586;DHT22;61865;50.232;18.614;2022-11-14T10:36:22;9.40;99.90
73586;DHT22;61865;50.232;18.614;2022-11-14T10:38:49;9.40;99.90
73586;DHT22;61865;50.232;18.614;2022-11-14T10:41:14;9.40;99.90
73586;DHT22;61865;50.232;18.614;2022-11-14T10:43:37;9.40;99.90
73586;DHT22;61865;50.232;18.614;2022-11-14T10:46:01;9.50;99.90
73586;DHT22;61865;50.232;18.614;2022-11-14T10:48:28;9.50;99.90
73586;DHT22;61865;50.232;18.614;2022-11-14T10:50:51;9.40;99.90
73586;DHT22;61865;50.232;18.614;2022-11-14T10:53:17;9.50;99.90
73586;DHT22;61865;50.232;18.614;2022-11-14T10:55:42;9.50;99.90
73586;DHT22;61865;50.232;18.614;2022-11-14T10:58:08;9.50;99.90
73586;DHT22;61865;50.232;18.614;2022-11-14T11:00:30;9.60;99.90
73586;DHT22;61865;50.232;18.614;2022-11-14T11:02:52;9.50;99.90
73586;DHT22;61865;50.232;18.614;2022-11-14T11:05:15;9.40;99.90
73586;DHT22;61865;50.232;18.614;2022-11-14T11:07:43;9.30;99.90
73586;DHT22;61865;50.232;18.614;2022-11-14T11:10:22;9.20;99.90
73586;DHT22;61865;50.232;18.614;2022-11-14T11:13:04;9.10;99.90
73586;DHT22;61865;50.232;18.614;2022-11-14T11:15:27;9.00;99.90
73586;DHT22;61865;50.232;18.614;2022-11-14T11:17:54;8.80;99.90
73586;DHT22;61865;50.232;18.614;2022-11-14T11:20:29;8.80;99.90
73586;DHT22;61865;50.232;18.614;2022-11-14T11:22:56;8.70;99.90
73586;DHT22;61865;50.232;18.614;2022-11-14T11:25:23;8.70;99.90
73586;DHT22;61865;50.232;18.614;2022-11-14T11:27:45;8.70;99.90
73586;DHT22;61865;50.232;18.614;2022-11-14T11:30:08;8.70;99.90
73586;DHT22;61865;50.232;18.614;2022-11-14T11:32:39;8.70;99.90
73586;DHT22;61865;50.232;18.614;2022-11-14T11:35:01;8.70;99.90
73586;DHT22;61865;50.232;18.614;2022-11-14T11:37:24;8.80;99.90
73586;DHT22;61865;50.232;18.614;2022-11-14T11:39:48;8.70;99.90
73586;DHT22;61865;50.232;18.614;2022-11-14T11:42:11;8.70;99.90
73586;DHT22;61865;50.232;18.614;2022-11-14T11:44:35;8.70;99.90
73586;DHT22;61865;50.232;18.614;2022-11-14T11:46:58;8.80;99.90
73586;DHT22;61865;50.232;18.614;2022-11-14T11:49:23;8.60;99.90
73586;DHT22;61865;50.232;18.614;2022-11-14T11:51:50;8.60;99.90
73586;DHT22;61865;50.232;18.614;2022-11-14T11:54:17;8.60;99.90
73586;DHT22;61865;50.232;18.614;2022-11-14T11:56:39;8.60;99.90
73586;DHT22;61865;50.232;18.614;2022-11-14T11:59:08;8.50;99.90
73586;DHT22;61865;50.232;18.614;2022-11-14T12:01:35;8.50;99.90
73586;DHT22;61865;50.232;18.614;2022-11-14T12:03:57;8.40;99.90
73586;DHT22;61865;50.232;18.614;2022-11-14T12:06:23;8.40;99.90
73586;DHT22;61865;50.232;18.614;2022-11-14T12:08:50;8.50;99.90
73586;DHT22;61865;50.232;18.614;2022-11-14T12:11:16;8.40;99.90
73586;DHT22;61865;50.232;18.614;2022-11-14T12:13:48;8.40;99.90
73586;DHT22;61865;50.232;18.614;2022-11-14T12:16:16;8.40;99.90
73586;DHT22;61865;50.232;18.614;2022-11-14T12:18:52;8.40;99.90
73586;DHT22;61865;50.232;18.614;2022-11-14T12:21:25;8.50;99.90
73586;DHT22;61865;50.232;18.614;2022-11-14T12:23:59;8.50;99.90
73586;DHT22;61865;50.232;18.614;2022-11-14T12:26:34;8.40;99.90
73586;DHT22;61865;50.232;18.614;2022-11-14T12:29:03;8.40;99.90
73586;DHT22;61865;50.232;18.614;2022-11-14T12:31:31;8.30;99.90
73586;DHT22;61865;50.232;18.614;2022-11-14T12:33:55;8.30;99.90
73586;DHT22;61865;50.232;18.614;2022-11-14T12:36:18;8.30;99.90
73586;DHT22;61865;50.232;18.614;2022-11-14T12:38:42;8.30;99.90
73586;DHT22;61865;50.232;18.614;2022-11-14T12:41:05;8.30;99.90
73586;DHT22;61865;50.232;18.614;2022-11-14T12:43:29;8.30;99.90
73586;DHT22;61865;50.232;18.614;2022-11-14T12:45:56;8.30;99.90
73586;DHT22;61865;50.232;18.614;2022-11-14T12:48:20;8.40;99.90
73586;DHT22;61865;50.232;18.614;2022-11-14T12:50:42;8.40;99.90
73586;DHT22;61865;50.232;18.614;2022-11-14T12:53:05;8.40;99.90
73586;DHT22;61865;50.232;18.614;2022-11-14T12:56:04;8.50;99.90
73586;DHT22;61865;50.232;18.614;2022-11-14T12:58:31;8.50;99.90
73586;DHT22;61865;50.232;18.614;2022-11-14T13:01:00;8.50;99.90
73586;DHT22;61865;50.232;18.614;2022-11-14T13:03:29;8.50;99.90
73586;DHT22;61865;50.232;18.614;2022-11-14T13:05:54;8.60;99.90
73586;DHT22;61865;50.232;18.614;2022-11-14T13:08:22;8.60;99.90
73586;DHT22;61865;50.232;18.614;2022-11-14T13:10:51;8.60;99.90
73586;DHT22;61865;50.232;18.614;2022-11-14T13:13:14;8.60;99.90
73586;DHT22;61865;50.232;18.614;2022-11-14T13:15:54;8.60;99.90
73586;DHT22;61865;50.232;18.614;2022-11-14T13:18:34;8.60;99.90
73586;DHT22;61865;50.232;18.614;2022-11-14T13:21:15;8.60;99.90
73586;DHT22;61865;50.232;18.614;2022-11-14T13:23:56;8.50;99.90
73586;DHT22;61865;50.232;18.614;2022-11-14T13:28:59;8.40;99.90
73586;DHT22;61865;50.232;18.614;2022-11-14T13:31:22;8.40;99.90
73586;DHT22;61865;50.232;18.614;2022-11-14T13:33:45;8.40;99.90
73586;DHT22;61865;50.232;18.614;2022-11-14T13:36:08;8.40;99.90
73586;DHT22;61865;50.232;18.614;2022-11-14T13:38:48;8.40;99.90
73586;DHT22;61865;50.232;18.614;2022-11-14T13:43:54;8.40;99.90
73586;DHT22;61865;50.232;18.614;2022-11-14T13:46:20;8.40;99.90
73586;DHT22;61865;50.232;18.614;2022-11-14T13:48:56;8.40;99.90
73586;DHT22;61865;50.232;18.614;2022-11-14T13:51:22;8.40;99.90
73586;DHT22;61865;50.232;18.614;2022-11-14T13:53:44;8.30;99.90
73586;DHT22;61865;50.232;18.614;2022-11-14T13:56:09;8.30;99.90
73586;DHT22;61865;50.232;18.614;2022-11-14T13:58:41;8.20;99.90
73586;DHT22;61865;50.232;18.614;2022-11-14T14:01:08;8.10;99.90
73586;DHT22;61865;50.232;18.614;2022-11-14T14:03:37;8.10;99.90
73586;DHT22;61865;50.232;18.614;2022-11-14T14:06:07;8.00;99.90
73586;DHT22;61865;50.232;18.614;2022-11-14T14:08:36;8.00;99.90
73586;DHT22;61865;50.232;18.614;2022-11-14T14:11:07;7.90;99.90
73586;DHT22;61865;50.232;18.614;2022-11-14T14:13:39;7.90;99.90
73586;DHT22;61865;50.232;18.614;2022-11-14T14:16:08;7.90;99.90
73586;DHT22;61865;50.232;18.614;2022-11-14T14:18:39;7.80;99.90
73586;DHT22;61865;50.232;18.614;2022-11-14T14:21:05;7.80;99.90
73586;DHT22;61865;50.232;18.614;2022-11-14T14:23:32;7.70;99.90
73586;DHT22;61865;50.232;18.614;2022-11-14T14:25:58;7.60;99.90
73586;DHT22;61865;50.232;18.614;2022-11-14T14:28:23;7.60;99.90
73586;DHT22;61865;50.232;18.614;2022-11-14T14:31:01;7.50;99.90
73586;DHT22;61865;50.232;18.614;2022-11-14T14:33:24;7.40;99.90
73586;DHT22;61865;50.232;18.614;2022-11-14T14:35:51;7.30;99.90
73586;DHT22;61865;50.232;18.614;2022-11-14T14:38:20;7.20;99.90
73586;DHT22;61865;50.232;18.614;2022-11-14T14:40:42;7.10;99.90
73586;DHT22;61865;50.232;18.614;2022-11-14T14:43:04;7.10;99.90
73586;DHT22;61865;50.232;18.614;2022-11-14T14:45:27;7.00;99.90
73586;DHT22;61865;50.232;18.614;2022-11-14T14:47:50;6.90;99.90
73586;DHT22;61865;50.232;18.614;2022-11-14T14:50:14;6.90;99.90
73586;DHT22;61865;50.232;18.614;2022-11-14T14:52:38;6.80;99.90
73586;DHT22;61865;50.232;18.614;2022-11-14T14:55:00;6.80;99.90
73586;DHT22;61865;50.232;18.614;2022-11-14T14:57:22;6.70;99.90
73586;DHT22;61865;50.232;18.614;2022-11-14T14:59:44;6.70;99.90
73586;DHT22;61865;50.232;18.614;2022-11-14T15:02:08;6.70;99.90
73586;DHT22;61865;50.232;18.614;2022-11-14T15:04:33;6.60;99.90
73586;DHT22;61865;50.232;18.614;2022-11-14T15:06:56;6.50;99.90
73586;DHT22;61865;50.232;18.614;2022-11-14T15:09:23;6.50;99.90
73586;DHT22;61865;50.232;18.614;2022-11-14T15:11:46;6.40;99.90
73586;DHT22;61865;50.232;18.614;2022-11-14T15:14:09;6.30;99.90